Terminal Aerodrome Forecast
Issued by NWS

Home | Current Version | Previous Version | Text Only | Print | Product List | Glossary On
Versions: 1 2 3 4 5 6 7 8 9 10 11 12 13 14 15 16 17 18 19 20
000
FTUS43 KILX 281700 RRA
TAFBMI
TAF
KBMI 281743Z 2818/0118 13010KT P6SM SCT100
     FM282200 12008KT P6SM -SN OVC070
     FM010100 12005KT 5SM -SN BR OVC025
     FM010500 13005KT 2SM -SN BR OVC010
     FM010800 VRB03KT 1SM -SN BR OVC007
     FM011600 30004KT 3SM -SN BR OVC009=

USA.gov is the U.S. government's official web portal to all federal, state and local government web resources and services.